Aviation Digital Data Service (ADDS)

Output produced by METARs form (1958 UTC 17 November 2019)
found at http://www.aviationweather.gov/metar/data/
 
METAR text: RJSI 171000Z 18005KT 130V230 CAVOK 02/M03 Q1026
Conditions at: RJSI (HANAMAKI AIRPORT, JP) observed 1000 UTC 17 November 2019
Temperature: 2.0°C (36°F)
Dewpoint: -3.0°C (27°F) [RH = 69%]
Pressure (altimeter): 30.30 inches Hg (1026.0 mb)
Winds: from the S (180 degrees) at 6 MPH (5 knots; 2.6 m/s)
Visibility: 6 or more miles (10+ km)
Ceiling: ceiling and visibility are OK
Clouds: unknown
Weather: no significant weather observed at this time

METAR text: RJSI 170900Z 35007KT CAVOK 04/M05 Q1025
Conditions at: RJSI (HANAMAKI AIRPORT, JP) observed 0900 UTC 17 November 2019
Temperature: 4.0°C (39°F)
Dewpoint: -5.0°C (23°F) [RH = 52%]
Pressure (altimeter): 30.27 inches Hg (1025.0 mb)
Winds: from the N (350 degrees) at 8 MPH (7 knots; 3.6 m/s)
Visibility: 6 or more miles (10+ km)
Ceiling: ceiling and visibility are OK
Clouds: unknown
Weather: no significant weather observed at this time

METAR text: RJSI 170800Z 30004KT 260V340 9999 FEW030 SCT/// 05/M05 Q1024
Conditions at: RJSI (HANAMAKI AIRPORT, JP) observed 0800 UTC 17 November 2019
Temperature: 5.0°C (41°F)
Dewpoint: -5.0°C (23°F) [RH = 48%]
Pressure (altimeter): 30.24 inches Hg (1024.0 mb)
Winds: from the WNW (300 degrees) at 5 MPH (4 knots; 2.1 m/s)
Visibility: 6 or more miles (10+ km)
Ceiling: at least 12,000 feet AGL
Clouds: few clouds at 3000 feet AGL
Weather: no significant weather observed at this time

METAR text: RJSI 170700Z 30007KT 250V340 9999 FEW030 SCT/// 05/M06 Q1023
Conditions at: RJSI (HANAMAKI AIRPORT, JP) observed 0700 UTC 17 November 2019
Temperature: 5.0°C (41°F)
Dewpoint: -6.0°C (21°F) [RH = 45%]
Pressure (altimeter): 30.21 inches Hg (1023.0 mb)
Winds: from the WNW (300 degrees) at 8 MPH (7 knots; 3.6 m/s)
Visibility: 6 or more miles (10+ km)
Ceiling: at least 12,000 feet AGL
Clouds: few clouds at 3000 feet AGL
Weather: no significant weather observed at this time

METAR text: RJSI 170600Z 27008KT 230V300 9999 FEW030 07/M05 Q1023
Conditions at: RJSI (HANAMAKI AIRPORT, JP) observed 0600 UTC 17 November 2019
Temperature: 7.0°C (45°F)
Dewpoint: -5.0°C (23°F) [RH = 42%]
Pressure (altimeter): 30.21 inches Hg (1023.0 mb)
Winds: from the W (270 degrees) at 9 MPH (8 knots; 4.1 m/s)
Visibility: 6 or more miles (10+ km)
Ceiling: at least 12,000 feet AGL
Clouds: few clouds at 3000 feet AGL
Weather: no significant weather observed at this time

METAR text: RJSI 170500Z 28010G21KT 240V310 9999 FEW030 08/M05 Q1022
Conditions at: RJSI (HANAMAKI AIRPORT, JP) observed 0500 UTC 17 November 2019
Temperature: 8.0°C (46°F)
Dewpoint: -5.0°C (23°F) [RH = 39%]
Pressure (altimeter): 30.18 inches Hg (1022.0 mb)
Winds: from the W (280 degrees) at 12 MPH (10 knots; 5.1 m/s)
gusting to 24 MPH (21 knots; 10.8 m/s)
Visibility: 6 or more miles (10+ km)
Ceiling: at least 12,000 feet AGL
Clouds: few clouds at 3000 feet AGL
Weather: no significant weather observed at this time

METAR text: RJSI 170400Z 28011KT 240V330 9999 FEW050 08/M05 Q1021
Conditions at: RJSI (HANAMAKI AIRPORT, JP) observed 0400 UTC 17 November 2019
Temperature: 8.0°C (46°F)
Dewpoint: -5.0°C (23°F) [RH = 39%]
Pressure (altimeter): 30.15 inches Hg (1021.0 mb)
Winds: from the W (280 degrees) at 13 MPH (11 knots; 5.7 m/s)
Visibility: 6 or more miles (10+ km)
Ceiling: at least 12,000 feet AGL
Clouds: few clouds at 5000 feet AGL
Weather: no significant weather observed at this time

METAR text: RJSI 170300Z 29012G25KT 240V340 9999 FEW030 SCT050 08/M03 Q1021
Conditions at: RJSI (HANAMAKI AIRPORT, JP) observed 0300 UTC 17 November 2019
Temperature: 8.0°C (46°F)
Dewpoint: -3.0°C (27°F) [RH = 46%]
Pressure (altimeter): 30.15 inches Hg (1021.0 mb)
Winds: from the WNW (290 degrees) at 14 MPH (12 knots; 6.2 m/s)
gusting to 29 MPH (25 knots; 12.9 m/s)
Visibility: 6 or more miles (10+ km)
Ceiling: at least 12,000 feet AGL
Clouds: few clouds at 3000 feet AGL
scattered clouds at 5000 feet AGL
Weather: no significant weather observed at this time

METAR text: RJSI 170200Z 29014G28KT 230V320 9999 FEW030 SCT050 08/M03 Q1021
Conditions at: RJSI (HANAMAKI AIRPORT, JP) observed 0200 UTC 17 November 2019
Temperature: 8.0°C (46°F)
Dewpoint: -3.0°C (27°F) [RH = 46%]
Pressure (altimeter): 30.15 inches Hg (1021.0 mb)
Winds: from the WNW (290 degrees) at 16 MPH (14 knots; 7.2 m/s)
gusting to 32 MPH (28 knots; 14.4 m/s)
Visibility: 6 or more miles (10+ km)
Ceiling: at least 12,000 feet AGL
Clouds: few clouds at 3000 feet AGL
scattered clouds at 5000 feet AGL
Weather: no significant weather observed at this time

METAR text: RJSI 170100Z 28015G25KT 250V330 9999 FEW030 SCT050 08/M03 Q1020
Conditions at: RJSI (HANAMAKI AIRPORT, JP) observed 0100 UTC 17 November 2019
Temperature: 8.0°C (46°F)
Dewpoint: -3.0°C (27°F) [RH = 46%]
Pressure (altimeter): 30.12 inches Hg (1020.0 mb)
Winds: from the W (280 degrees) at 17 MPH (15 knots; 7.7 m/s)
gusting to 29 MPH (25 knots; 12.9 m/s)
Visibility: 6 or more miles (10+ km)
Ceiling: at least 12,000 feet AGL
Clouds: few clouds at 3000 feet AGL
scattered clouds at 5000 feet AGL
Weather: no significant weather observed at this time

METAR text: RJSI 170000Z 28014KT 230V310 9999 FEW030 SCT050 07/M01 Q1019
Conditions at: RJSI (HANAMAKI AIRPORT, JP) observed 0000 UTC 17 November 2019
Temperature: 7.0°C (45°F)
Dewpoint: -1.0°C (30°F) [RH = 57%]
Pressure (altimeter): 30.09 inches Hg (1019.0 mb)
Winds: from the W (280 degrees) at 16 MPH (14 knots; 7.2 m/s)
Visibility: 6 or more miles (10+ km)
Ceiling: at least 12,000 feet AGL
Clouds: few clouds at 3000 feet AGL
scattered clouds at 5000 feet AGL
Weather: no significant weather observed at this time

METAR text: RJSI 162300Z 29010G20KT 230V350 9999 FEW030 SCT050 07/M02 Q1019
Conditions at: RJSI (HANAMAKI AIRPORT, JP) observed 2300 UTC 16 November 2019
Temperature: 7.0°C (45°F)
Dewpoint: -2.0°C (28°F) [RH = 53%]
Pressure (altimeter): 30.09 inches Hg (1019.0 mb)
Winds: from the WNW (290 degrees) at 12 MPH (10 knots; 5.1 m/s)
gusting to 23 MPH (20 knots; 10.3 m/s)
Visibility: 6 or more miles (10+ km)
Ceiling: at least 12,000 feet AGL
Clouds: few clouds at 3000 feet AGL
scattered clouds at 5000 feet AGL
Weather: no significant weather observed at this time

METAR text: RJSI 162240Z 28015G26KT 230V310 9999 FEW030 SCT050 06/M01 Q1018 RMK 1CU030 3CU050 A3009
Conditions at: RJSI (HANAMAKI AIRPORT, JP) observed 2240 UTC 16 November 2019
Temperature: 6.0°C (43°F)
Dewpoint: -1.0°C (30°F) [RH = 61%]
Pressure (altimeter): 30.06 inches Hg (1018.0 mb)
Winds: from the W (280 degrees) at 17 MPH (15 knots; 7.7 m/s)
gusting to 30 MPH (26 knots; 13.4 m/s)
Visibility: 6 or more miles (10+ km)
Ceiling: at least 12,000 feet AGL
Clouds: few clouds at 3000 feet AGL
scattered clouds at 5000 feet AGL
Weather: no significant weather observed at this time

METAR text: RJSI 161000Z VRB02KT 9999 -SHRA FEW020 SCT030 BKN040 06/03 Q1016
Conditions at: RJSI (HANAMAKI AIRPORT, JP) observed 1000 UTC 16 November 2019
Temperature: 6.0°C (43°F)
Dewpoint: 3.0°C (37°F) [RH = 81%]
Pressure (altimeter): 30.00 inches Hg (1016.0 mb)
Winds: variable direction winds at 2 MPH (2 knots; 1.0 m/s)
Visibility: 6 or more miles (10+ km)
Ceiling: 4000 feet AGL
Clouds: few clouds at 2000 feet AGL
scattered clouds at 3000 feet AGL
broken clouds at 4000 feet AGL
Weather: -SHRA  (light rain showers)

METAR text: RJSI 160900Z 34004KT 300V020 9999 -SHRA FEW020 SCT030 BKN040 07/01 Q1016
Conditions at: RJSI (HANAMAKI AIRPORT, JP) observed 0900 UTC 16 November 2019
Temperature: 7.0°C (45°F)
Dewpoint: 1.0°C (34°F) [RH = 66%]
Pressure (altimeter): 30.00 inches Hg (1016.0 mb)
Winds: from the NNW (340 degrees) at 5 MPH (4 knots; 2.1 m/s)
Visibility: 6 or more miles (10+ km)
Ceiling: 4000 feet AGL
Clouds: few clouds at 2000 feet AGL
scattered clouds at 3000 feet AGL
broken clouds at 4000 feet AGL
Weather: -SHRA  (light rain showers)

METAR text: RJSI 160800Z 09003KT 9999 VCSH FEW030 BKN040 07/00 Q1016
Conditions at: RJSI (HANAMAKI AIRPORT, JP) observed 0800 UTC 16 November 2019
Temperature: 7.0°C (45°F)
Dewpoint: 0.0°C (32°F) [RH = 61%]
Pressure (altimeter): 30.00 inches Hg (1016.0 mb)
Winds: from the E (90 degrees) at 3 MPH (3 knots; 1.5 m/s)
Visibility: 6 or more miles (10+ km)
Ceiling: 4000 feet AGL
Clouds: few clouds at 3000 feet AGL
broken clouds at 4000 feet AGL
Weather: VCSH  (showers in vicinity)

Forecast for: RJSI (HANAMAKI AIRPORT, JP)
Text: TAF RJSI 171705Z 1718/1900 02004KT 9999 FEW030
Forecast period: 1800 to 2300 UTC 17 November 2019
Forecast type: FROM: standard forecast or significant change
Winds: from the NNE (20 degrees) at 5 MPH (4 knots; 2.1 m/s)
Visibility: 6 or more miles 10+ km)
Ceiling: at least 12,000 feet AGL
Clouds: few clouds at 3000 feet AGL
Weather: no significant weather forecast for this period
Text: BECMG 1723/1801 19010KT
Forecast period: 2300 UTC 17 November 2019 to 2100 UTC 18 November 2019
Forecast type: BECOMING: Conditions expected to become as follows by 0100 UTC 18 November 2019
Winds: from the S (190 degrees) at 12 MPH (10 knots; 5.1 m/s)
Visibility: 6 or more miles 10+ km)
Ceiling: at least 12,000 feet AGL
Clouds: few clouds at 3000 feet AGL
Weather: no significant weather forecast for this period
Text: TEMPO 1806/1812 3000 SHRA BR FEW005 BKN008 BKN015
Forecast period: 0600 to 1200 UTC 18 November 2019
Forecast type: TEMPORARY: The following changes expected for less than half the time period
Visibility: 1.86 miles (2.99 km)
Ceiling: 800 feet AGL
Clouds: few clouds at 500 feet AGL
broken clouds at 800 feet AGL
broken clouds at 1500 feet AGL
Weather: SHRA BR  (rain showers, mist)
Text: BECMG 1821/1900 27006KT
Forecast period: 2100 UTC 18 November 2019 to 0000 UTC 19 November 2019
Forecast type: BECOMING: Conditions expected to become as follows by 0000 UTC 19 November 2019
Winds: from the W (270 degrees) at 7 MPH (6 knots; 3.1 m/s)
Visibility: 6 or more miles 10+ km)
Ceiling: at least 12,000 feet AGL
Clouds: few clouds at 3000 feet AGL
Weather: no significant weather forecast for this period